Time;durP1;ratioP1;P1;durP2;ratioP2;P2;SDS_P1;SDS_P2;PMS_P1;PMS_P2;Temp;Humidity;BMP_temperature;BMP_pressure;BME280_temperature;BME280_humidity;BME280_pressure;Samples;Min_cycle;Max_cycle;Signal;HPM_P1;HPM_P2
2023/05/06 00:01:09;;;;;;;;;;;;;;;18.51;67.63;101231.03;4901861;29;19969;-84
2023/05/06 00:03:44;;;;;;;;;;;;;;;18.14;67.76;101176.03;4904150;28;20029;-83
2023/05/06 00:06:19;;;;;;;;;;;;;;;18.43;68.07;101229.22;4904757;28;19923;-85
2023/05/06 00:08:45;;;;;;;;;;;;;;;18.35;68.01;101223.88;4914121;29;20608;-84
2023/05/06 00:11:12;;;;;;;;;;;;;;;18.31;66.94;101231.41;4922024;28;20093;-83
2023/05/06 00:13:40;;;;;;;;;;;;;;;18.30;66.34;101223.53;4920347;28;20310;-84
2023/05/06 00:16:09;;;;;;;;;;;;;;;17.97;66.07;101172.56;4910812;28;20024;-83
2023/05/06 00:18:40;;;;;;;;;;;;;;;18.36;64.60;101217.47;4939250;28;20170;-83
2023/05/06 00:21:07;;;;;;;;;;;;;;;18.39;63.71;101222.50;4935110;28;19927;-83
2023/05/06 00:23:33;;;;;;;;;;;;;;;18.45;62.37;101216.44;4908645;28;20036;-83
2023/05/06 00:26:05;;;;;;;;;;;;;;;18.42;62.19;101219.44;4903137;28;19950;-83
2023/05/06 00:28:36;;;;;;;;;;;;;;;18.39;60.43;101214.44;4905121;29;19922;-83
2023/05/06 00:31:02;;;;;;;;;;;;;;;18.40;60.59;101207.19;4944662;28;19926;-82
2023/05/06 00:33:29;;;;;;;;;;;;;;;18.39;60.58;101211.75;4937780;28;20348;-84
2023/05/06 00:35:56;;;;;;;;;;;;;;;18.41;59.41;101204.34;4935024;28;20349;-82
2023/05/06 00:38:25;;;;;;;;;;;;;;;18.43;59.66;101204.19;4936809;28;20221;-82
2023/05/06 00:40:52;;;;;;;;;;;;;;;18.46;59.88;101207.34;4928066;29;20013;-81
2023/05/06 00:43:23;;;;;;;;;;;;;;;18.44;59.73;101209.38;4921645;28;20063;-82
2023/05/06 00:45:50;;;;;;;;;;;;;;;18.44;59.62;101211.22;4908599;29;20228;-83
2023/05/06 00:48:17;;;;;;;;;;;;;;;18.41;59.35;101206.19;4911146;28;20564;-82
2023/05/06 00:50:44;;;;;;;;;;;;;;;18.43;60.24;101207.72;4902390;29;20329;-82
2023/05/06 00:53:11;;;;;;;;;;;;;;;18.43;59.73;101215.78;4898835;29;20208;-83
2023/05/06 00:55:41;;;;;;;;;;;;;;;18.03;59.00;101153.06;4913769;29;19931;-82
2023/05/06 00:58:09;;;;;;;;;;;;;;;18.08;59.47;101156.09;4911646;29;19930;-82
2023/05/06 01:00:36;;;;;;;;;;;;;;;18.35;59.52;101218.50;4910199;29;19978;-83
2023/05/06 01:03:03;;;;;;;;;;;;;;;18.31;59.38;101219.84;4914506;28;20264;-82
2023/05/06 01:05:31;;;;;;;;;;;;;;;18.24;59.27;101208.09;4915128;28;20006;-82
2023/05/06 01:08:01;;;;;;;;;;;;;;;18.31;65.37;101214.47;4899056;29;20272;-82
2023/05/06 01:10:34;;;;;;;;;;;;;;;18.45;68.19;101204.84;4907016;29;19928;-82
2023/05/06 01:13:22;;;;;;;;;;;;;;;18.48;60.73;101202.63;4909888;28;20372;-83
2023/05/06 01:15:54;;;;;;;;;;;;;;;18.43;60.31;101207.72;4906975;28;19926;-83
2023/05/06 01:18:25;;;;;;;;;;;;;;;18.34;59.78;101208.72;4904962;28;20059;-83
2023/05/06 01:20:52;;;;;;;;;;;;;;;18.31;60.58;101206.41;4898413;29;20467;-83
2023/05/06 01:23:19;;;;;;;;;;;;;;;18.26;60.66;101206.09;4881771;28;19926;-82
2023/05/06 01:25:46;;;;;;;;;;;;;;;18.20;60.46;101204.06;4897990;28;20270;-82
2023/05/06 01:28:15;;;;;;;;;;;;;;;18.11;60.93;101201.41;4903109;28;19950;-84
2023/05/06 01:31:02;;;;;;;;;;;;;;;17.78;60.90;101149.56;4897484;29;20138;-82
2023/05/06 01:33:39;;;;;;;;;;;;;;;18.12;60.31;101199.56;4917757;29;20431;-84
2023/05/06 01:36:13;;;;;;;;;;;;;;;18.06;60.06;101198.41;4901482;29;20321;-84
2023/05/06 01:39:01;;;;;;;;;;;;;;;18.04;59.62;101202.28;4898710;29;19922;-83
2023/05/06 01:41:30;;;;;;;;;;;;;;;18.03;59.95;101200.56;4925143;28;20295;-82
2023/05/06 01:44:01;;;;;;;;;;;;;;;17.37;60.45;101095.06;4915712;29;20311;-82
2023/05/06 01:46:36;;;;;;;;;;;;;;;17.45;60.12;101108.47;4869584;29;20285;-83
2023/05/06 01:49:11;;;;;;;;;;;;;;;18.06;60.91;101205.59;4881705;28;20022;-82
2023/05/06 01:51:48;;;;;;;;;;;;;;;18.08;62.59;101204.44;4867893;29;20298;-83
2023/05/06 01:54:16;;;;;;;;;;;;;;;18.14;61.10;101203.75;4890302;29;19973;-82
2023/05/06 01:56:45;;;;;;;;;;;;;;;17.68;60.77;101128.25;4917036;28;19930;-82
2023/05/06 01:59:14;;;;;;;;;;;;;;;17.73;61.06;101144.69;4902796;29;19923;-83
2023/05/06 02:01:43;;;;;;;;;;;;;;;18.02;60.94;101199.75;4916970;28;20391;-82
2023/05/06 02:04:10;;;;;;;;;;;;;;;18.07;64.19;101207.28;4931565;28;20400;-78
2023/05/06 02:06:36;;;;;;;;;;;;;;;18.14;60.19;101203.75;4945320;28;19922;-81
2023/05/06 02:09:03;;;;;;;;;;;;;;;18.12;60.09;101200.38;4923933;28;20368;-81
2023/05/06 02:11:29;;;;;;;;;;;;;;;18.12;59.91;101197.69;4935923;28;20395;-82
2023/05/06 02:13:57;;;;;;;;;;;;;;;18.17;62.42;101190.97;4939414;28;19973;-82
2023/05/06 02:16:27;;;;;;;;;;;;;;;18.16;59.44;101192.84;4923450;28;19922;-83
2023/05/06 02:18:57;;;;;;;;;;;;;;;18.20;61.10;101196.00;4932958;28;20001;-82
2023/05/06 02:21:30;;;;;;;;;;;;;;;17.83;59.79;101135.66;4928585;28;20510;-83
2023/05/06 02:23:57;;;;;;;;;;;;;;;18.11;59.67;101187.16;4939531;28;19933;-82
2023/05/06 02:26:25;;;;;;;;;;;;;;;18.11;60.03;101179.91;4923589;28;20295;-82
2023/05/06 02:28:52;;;;;;;;;;;;;;;18.11;59.24;101177.22;4921464;28;19922;-82
2023/05/06 02:31:25;;;;;;;;;;;;;;;18.06;59.91;101189.47;4922442;28;20308;-80
2023/05/06 02:33:52;;;;;;;;;;;;;;;18.03;60.23;101179.91;4919114;28;19922;-81
2023/05/06 02:36:21;;;;;;;;;;;;;;;18.01;59.64;101176.59;4915740;28;19929;-82
2023/05/06 02:38:47;;;;;;;;;;;;;;;18.00;60.00;101182.94;4916791;28;19929;-81
2023/05/06 02:41:14;;;;;;;;;;;;;;;17.92;59.71;101182.97;4921402;28;20021;-81
2023/05/06 02:43:41;;;;;;;;;;;;;;;17.93;59.97;101181.97;4929707;28;20526;-81
2023/05/06 02:46:08;;;;;;;;;;;;;;;17.99;62.84;101178.59;4925497;28;20633;-82
2023/05/06 02:48:35;;;;;;;;;;;;;;;17.99;61.09;101183.13;4932893;28;20230;-82
2023/05/06 02:51:02;;;;;;;;;;;;;;;18.02;61.71;101180.94;4899347;29;20541;-83
2023/05/06 02:53:28;;;;;;;;;;;;;;;18.07;61.60;101186.63;4890148;29;19930;-82
2023/05/06 02:55:59;;;;;;;;;;;;;;;17.67;60.73;101129.28;4891400;29;19930;-81
2023/05/06 02:58:29;;;;;;;;;;;;;;;17.93;60.44;101182.78;4907368;29;20191;-82
2023/05/06 03:00:57;;;;;;;;;;;;;;;17.89;60.83;101180.63;4910834;28;19949;-83
2023/05/06 03:03:24;;;;;;;;;;;;;;;17.85;61.13;101176.59;4900129;28;19933;-81
2023/05/06 03:05:51;;;;;;;;;;;;;;;17.80;60.65;101189.69;4921747;28;19922;-82
2023/05/06 03:08:20;;;;;;;;;;;;;;;17.85;61.30;101179.28;4911309;28;20479;-82
2023/05/06 03:10:51;;;;;;;;;;;;;;;17.81;61.53;101175.25;4942213;28;19922;-83
2023/05/06 03:13:17;;;;;;;;;;;;;;;17.83;61.83;101184.81;4947995;28;19922;-81
2023/05/06 03:15:49;;;;;;;;;;;;;;;17.80;61.83;101176.25;4943998;28;19937;-83
2023/05/06 03:18:16;;;;;;;;;;;;;;;17.46;61.79;101112.84;4937308;28;19981;-82
2023/05/06 03:20:50;;;;;;;;;;;;;;;17.80;61.66;101173.56;4899912;28;19933;-82
2023/05/06 03:23:29;;;;;;;;;;;;;;;17.86;64.84;101175.59;4897414;28;20310;-83
2023/05/06 03:26:09;;;;;;;;;;;;;;;17.89;62.12;101173.41;4895906;28;19922;-82
2023/05/06 03:28:41;;;;;;;;;;;;;;;17.90;62.11;101176.94;4906422;28;19926;-82
2023/05/06 03:31:17;;;;;;;;;;;;;;;17.93;62.23;101173.91;4925786;28;20100;-81
2023/05/06 03:33:44;;;;;;;;;;;;;;;18.03;66.43;101179.09;4932432;28;19922;-82
2023/05/06 03:36:13;;;;;;;;;;;;;;;18.02;63.54;101189.00;4929198;28;20008;-81
2023/05/06 03:38:40;;;;;;;;;;;;;;;18.07;64.70;101183.94;4899796;28;19938;-82
2023/05/06 03:41:10;;;;;;;;;;;;;;;17.75;63.31;101122.22;4916747;28;20097;-82
2023/05/06 03:43:36;;;;;;;;;;;;;;;18.09;63.15;101184.63;4918557;28;19922;-82
2023/05/06 03:46:03;;;;;;;;;;;;;;;18.02;63.09;101183.63;4915666;28;19926;-83
2023/05/06 03:48:30;;;;;;;;;;;;;;;17.99;64.75;101183.13;4919822;28;20483;-82
2023/05/06 03:51:00;;;;;;;;;;;;;;;17.40;62.78;101102.78;4889649;28;20012;-82
2023/05/06 03:53:33;;;;;;;;;;;;;;;17.87;63.46;101196.91;4912462;28;19926;-83
2023/05/06 03:56:03;;;;;;;;;;;;;;;17.49;63.38;101142.88;4910850;28;19925;-82
2023/05/06 03:58:37;;;;;;;;;;;;;;;17.58;63.89;101145.56;4904950;28;19933;-82
2023/05/06 04:01:18;;;;;;;;;;;;;;;17.75;64.45;101192.03;4900225;28;19930;-83
2023/05/06 04:04:01;;;;;;;;;;;;;;;17.68;64.34;101200.75;4887279;28;19922;-82
2023/05/06 04:06:42;;;;;;;;;;;;;;;17.62;64.61;101193.38;4903069;28;20500;-82
2023/05/06 04:09:17;;;;;;;;;;;;;;;17.55;64.93;101195.06;4886880;29;19949;-82
2023/05/06 04:11:46;;;;;;;;;;;;;;;17.46;65.05;101190.69;4921018;28;19945;-83
2023/05/06 04:14:13;;;;;;;;;;;;;;;17.40;65.17;101194.88;4916641;28;20782;-82
2023/05/06 04:16:40;;;;;;;;;;;;;;;17.43;65.31;101197.22;4926058;28;19927;-83
2023/05/06 04:19:08;;;;;;;;;;;;;;;17.42;63.83;101197.38;4911053;28;19949;-82
2023/05/06 04:21:36;;;;;;;;;;;;;;;17.04;63.60;101143.38;4905525;28;19922;-82
2023/05/06 04:24:02;;;;;;;;;;;;;;;17.30;63.84;101200.38;4916026;29;19922;-81
2023/05/06 04:26:32;;;;;;;;;;;;;;;16.92;62.99;101147.34;4928069;28;19954;-83
2023/05/06 04:29:04;;;;;;;;;;;;;;;17.27;63.08;101210.63;4932827;28;20372;-82
2023/05/06 04:31:31;;;;;;;;;;;;;;;17.30;63.44;101203.06;4916606;29;20280;-82
2023/05/06 04:33:59;;;;;;;;;;;;;;;17.33;62.75;101206.44;4903434;28;20149;-82
2023/05/06 04:36:25;;;;;;;;;;;;;;;17.39;62.88;101208.47;4907039;29;20011;-83
2023/05/06 04:38:52;;;;;;;;;;;;;;;17.42;62.70;101202.75;4906098;29;20799;-81
2023/05/06 04:41:19;;;;;;;;;;;;;;;17.47;62.23;101205.78;4909287;29;20282;-82
2023/05/06 04:43:46;;;;;;;;;;;;;;;17.48;61.71;101205.63;4933413;28;19926;-82
2023/05/06 04:46:13;;;;;;;;;;;;;;;17.23;61.92;101153.78;4932759;28;19923;-82
2023/05/06 04:48:40;;;;;;;;;;;;;;;17.65;61.53;101205.63;4919066;28;19926;-81
2023/05/06 04:51:08;;;;;;;;;;;;;;;17.70;61.07;101212.16;4937228;28;20373;-82
2023/05/06 04:53:34;;;;;;;;;;;;;;;17.81;60.48;101215.53;4925838;28;19957;-83
2023/05/06 04:56:04;;;;;;;;;;;;;;;17.87;60.96;101218.41;4928691;29;20258;-81
2023/05/06 04:58:30;;;;;;;;;;;;;;;17.93;60.37;101219.56;4937352;28;19930;-82
2023/05/06 05:00:58;;;;;;;;;;;;;;;18.01;59.95;101218.72;4939400;28;20295;-83
2023/05/06 05:03:25;;;;;;;;;;;;;;;17.75;59.50;101159.81;4932931;28;20398;-83
2023/05/06 05:05:52;;;;;;;;;;;;;;;18.12;59.97;101221.88;4946526;28;20030;-81
2023/05/06 05:08:19;;;;;;;;;;;;;;;18.17;59.73;101217.84;4948972;28;19922;-83
2023/05/06 05:10:45;;;;;;;;;;;;;;;18.20;59.33;101214.81;4923057;28;19922;-82
2023/05/06 05:13:12;;;;;;;;;;;;;;;18.24;59.25;101225.06;4919801;28;19922;-85
2023/05/06 05:15:39;;;;;;;;;;;;;;;18.25;59.33;101217.81;4926850;28;20012;-84
2023/05/06 05:18:06;;;;;;;;;;;;;;;18.26;60.48;101219.53;4932786;28;19928;-84
2023/05/06 05:20:32;;;;;;;;;;;;;;;18.30;60.21;101220.84;4899783;28;20478;-84
2023/05/06 05:23:02;;;;;;;;;;;;;;;18.35;59.88;101215.81;4906421;28;20196;-84
2023/05/06 05:25:35;;;;;;;;;;;;;;;18.36;60.06;101218.31;4937904;28;19988;-84
2023/05/06 05:28:03;;;;;;;;;;;;;;;18.02;60.69;101167.50;4927848;28;20359;-83
2023/05/06 05:30:34;;;;;;;;;;;;;;;18.40;61.06;101215.25;4932517;28;19922;-82
2023/05/06 05:33:00;;;;;;;;;;;;;;;18.44;61.01;101214.75;4930766;28;20524;-81
2023/05/06 05:35:30;;;;;;;;;;;;;;;18.46;61.30;101219.97;4940593;28;19926;-83
2023/05/06 05:38:00;;;;;;;;;;;;;;;18.47;62.29;101213.56;4940304;28;20185;-83
2023/05/06 05:40:26;;;;;;;;;;;;;;;18.50;61.34;101218.59;4937671;28;19956;-83
2023/05/06 05:42:54;;;;;;;;;;;;;;;18.54;60.92;101219.91;4937225;28;19922;-83
2023/05/06 05:45:23;;;;;;;;;;;;;;;18.29;61.36;101178.84;4939189;28;19949;-83
2023/05/06 05:47:52;;;;;;;;;;;;;;;18.57;61.56;101220.44;4950695;28;20028;-83
2023/05/06 05:50:19;;;;;;;;;;;;;;;18.66;63.91;101220.38;4926875;28;19949;-83
2023/05/06 05:52:50;;;;;;;;;;;;;;;18.44;61.71;101166.34;4936697;28;20053;-83
2023/05/06 05:55:20;;;;;;;;;;;;;;;18.77;62.31;101220.88;4943575;28;20129;-82
2023/05/06 05:57:46;;;;;;;;;;;;;;;18.82;60.52;101222.22;4942942;28;20005;-81
2023/05/06 06:00:16;;;;;;;;;;;;;;;18.90;60.57;101223.00;4932322;28;19926;-83
2023/05/06 06:02:44;;;;;;;;;;;;;;;19.00;60.10;101225.47;4931314;28;20368;-83
2023/05/06 06:05:14;;;;;;;;;;;;;;;19.06;59.07;101223.94;4926818;28;20066;-82
2023/05/06 06:07:47;;;;;;;;;;;;;;;19.15;59.57;101217.47;4906652;28;19926;-81
2023/05/06 06:10:17;;;;;;;;;;;;;;;18.96;58.03;101170.34;4924374;28;19926;-82
2023/05/06 06:12:46;;;;;;;;;;;;;;;19.02;56.71;101164.25;4939201;28;20247;-82
2023/05/06 06:15:13;;;;;;;;;;;;;;;19.42;59.40;101226.91;4942248;28;19928;-82
2023/05/06 06:17:40;;;;;;;;;;;;;;;19.49;56.42;101224.31;4907920;28;20476;-81
2023/05/06 06:20:07;;;;;;;;;;;;;;;19.52;59.26;101232.03;4893622;28;19933;-80
2023/05/06 06:22:36;;;;;;;;;;;;;;;19.25;56.55;101180.41;4910559;28;20248;-81
2023/05/06 06:25:02;;;;;;;;;;;;;;;19.60;56.55;101234.66;4908542;28;19952;-81
2023/05/06 06:27:35;;;;;;;;;;;;;;;19.32;56.88;101181.38;4927114;28;19925;-83
2023/05/06 06:30:04;;;;;;;;;;;;;;;19.35;56.30;101182.88;4914923;28;19922;-80
2023/05/06 06:32:31;;;;;;;;;;;;;;;19.73;57.02;101237.59;4930446;28;19933;-82
2023/05/06 06:35:05;;;;;;;;;;;;;;;19.74;57.11;101236.59;4932791;28;19949;-81
2023/05/06 06:37:37;;;;;;;;;;;;;;;19.77;56.89;101241.63;4916939;28;20323;-82
2023/05/06 06:40:04;;;;;;;;;;;;;;;19.82;55.95;101247.31;4934649;28;19949;-81
2023/05/06 06:42:30;;;;;;;;;;;;;;;19.84;55.99;101245.25;4938750;28;20406;-80
2023/05/06 06:44:58;;;;;;;;;;;;;;;19.86;56.06;101247.78;4916943;28;20416;-81
2023/05/06 06:47:26;;;;;;;;;;;;;;;19.90;56.93;101256.34;4899843;28;19941;-83
2023/05/06 06:49:52;;;;;;;;;;;;;;;19.91;55.56;101248.06;4902407;28;19976;-81
2023/05/06 06:52:23;;;;;;;;;;;;;;;19.88;56.60;101256.53;4915590;28;20132;-83
2023/05/06 06:54:54;;;;;;;;;;;;;;;19.92;55.76;101262.38;4921036;28;19926;-82
2023/05/06 06:57:23;;;;;;;;;;;;;;;19.64;55.30;101207.19;4906728;28;20185;-82
2023/05/06 06:59:54;;;;;;;;;;;;;;;19.93;56.88;101264.03;4901221;28;20121;-82
2023/05/06 07:02:21;;;;;;;;;;;;;;;20.00;55.73;101265.00;4899190;28;20008;-82
2023/05/06 07:04:49;;;;;;;;;;;;;;;20.02;56.17;101263.78;4901048;29;19922;-82
2023/05/06 07:07:15;;;;;;;;;;;;;;;20.10;55.50;101253.94;4913204;29;19927;-82
2023/05/06 07:09:44;;;;;;;;;;;;;;;19.93;54.64;101218.22;4887612;29;19927;-82
2023/05/06 07:12:25;;;;;;;;;;;;;;;20.20;54.65;101254.56;4868473;29;20222;-82
2023/05/06 07:15:08;;;;;;;;;;;;;;;20.24;54.76;101262.09;4897845;29;20329;-81
2023/05/06 07:17:36;;;;;;;;;;;;;;;20.24;55.14;101262.09;4913874;29;19929;-83
2023/05/06 07:20:03;;;;;;;;;;;;;;;20.27;53.95;101256.31;4878059;29;20678;-82
2023/05/06 07:22:30;;;;;;;;;;;;;;;20.23;54.48;101257.69;4864499;29;20294;-82
2023/05/06 07:25:00;;;;;;;;;;;;;;;20.29;54.61;101256.13;4900421;29;19927;-81
2023/05/06 07:27:29;;;;;;;;;;;;;;;20.26;54.23;101254.63;4902838;29;19930;-81
2023/05/06 07:29:55;;;;;;;;;;;;;;;20.31;54.31;101259.47;4877499;29;20193;-81
2023/05/06 07:32:22;;;;;;;;;;;;;;;20.26;54.58;101260.03;4879569;29;19934;-81
2023/05/06 07:34:51;;;;;;;;;;;;;;;20.18;56.11;101261.97;4882011;29;19931;-82
2023/05/06 07:37:23;;;;;;;;;;;;;;;20.30;55.68;101262.38;4874141;29;19923;-80
2023/05/06 07:39:50;;;;;;;;;;;;;;;20.34;55.77;101260.97;4903585;29;19982;-82
2023/05/06 07:42:19;;;;;;;;;;;;;;;20.37;55.89;101258.75;4904826;29;19958;-81
2023/05/06 07:44:47;;;;;;;;;;;;;;;20.48;55.27;101263.66;4902780;29;19923;-82
2023/05/06 07:47:30;;;;;;;;;;;;;;;20.04;56.13;101218.63;4899995;29;19922;-81
2023/05/06 07:50:00;;;;;;;;;;;;;;;20.08;56.38;101213.72;4928141;28;19941;-81
2023/05/06 07:52:26;;;;;;;;;;;;;;;20.32;56.73;101269.25;4930166;28;20225;-81
2023/05/06 07:54:57;;;;;;;;;;;;;;;19.88;56.32;101169.44;4921771;28;19930;-80
2023/05/06 07:57:25;;;;;;;;;;;;;;;20.50;56.65;101263.50;4920357;28;19930;-80
2023/05/06 07:59:53;;;;;;;;;;;;;;;20.63;56.03;101271.81;4912465;28;19934;-81
2023/05/06 08:02:22;;;;;;;;;;;;;;;20.61;56.59;101273.03;4924010;28;19973;-80
2023/05/06 08:04:52;;;;;;;;;;;;;;;20.65;56.72;101260.81;4897415;28;20380;-81
2023/05/06 08:07:21;;;;;;;;;;;;;;;20.46;56.36;101217.19;4927989;28;19922;-81
2023/05/06 08:09:49;;;;;;;;;;;;;;;20.85;56.35;101269.16;4921853;29;20312;-81
2023/05/06 08:12:18;;;;;;;;;;;;;;;20.87;55.61;101272.53;4908593;29;20324;-80
2023/05/06 08:14:51;;;;;;;;;;;;;;;20.79;56.71;101272.63;4911608;29;20057;-80
2023/05/06 08:17:18;;;;;;;;;;;;;;;20.74;57.12;101270.50;4897644;29;20265;-80
2023/05/06 08:19:44;;;;;;;;;;;;;;;20.77;57.13;101274.69;4919320;28;20828;-81
2023/05/06 08:22:11;;;;;;;;;;;;;;;20.70;57.09;101272.75;4910278;29;19923;-80
2023/05/06 08:24:38;;;;;;;;;;;;;;;20.68;57.50;101269.38;4896259;29;19922;-81
2023/05/06 08:27:04;;;;;;;;;;;;;;;20.89;56.74;101275.88;4922190;29;19930;-82
2023/05/06 08:29:34;;;;;;;;;;;;;;;20.69;56.05;101225.19;4915018;29;19981;-80
2023/05/06 08:32:00;;;;;;;;;;;;;;;21.09;55.28;101273.41;4898270;29;19982;-80
2023/05/06 08:34:31;;;;;;;;;;;;;;;21.20;55.18;101267.53;4904667;29;20017;-81
2023/05/06 08:37:00;;;;;;;;;;;;;;;21.27;55.63;101270.31;4931554;28;19993;-80
2023/05/06 08:39:27;;;;;;;;;;;;;;;21.24;56.32;101267.97;4914166;29;19969;-82
2023/05/06 08:41:55;;;;;;;;;;;;;;;21.21;56.63;101268.38;4919761;29;19949;-82
2023/05/06 08:44:25;;;;;;;;;;;;;;;21.13;56.14;101264.75;4922009;28;20155;-82
2023/05/06 08:47:01;;;;;;;;;;;;;;;21.10;56.56;101258.91;4906498;28;19922;-82
2023/05/06 08:49:27;;;;;;;;;;;;;;;21.06;56.56;101265.72;4918281;29;20562;-82
2023/05/06 08:51:58;;;;;;;;;;;;;;;20.92;56.05;101210.72;4934559;28;20288;-81
2023/05/06 08:54:35;;;;;;;;;;;;;;;21.31;56.11;101263.50;4922243;28;19929;-82
2023/05/06 08:57:09;;;;;;;;;;;;;;;21.34;54.54;101266.66;4923822;28;19922;-82
2023/05/06 08:59:38;;;;;;;;;;;;;;;21.51;55.11;101263.75;4922948;28;19985;-82
2023/05/06 09:02:10;;;;;;;;;;;;;;;21.11;55.50;101169.63;4934336;28;20473;-81
2023/05/06 09:04:37;;;;;;;;;;;;;;;21.72;55.72;101262.91;4940521;28;19922;-82
2023/05/06 09:07:04;;;;;;;;;;;;;;;21.39;55.59;101255.31;4924336;28;19930;-82
2023/05/06 09:09:30;;;;;;;;;;;;;;;21.37;53.70;101264.59;4920930;29;20297;-81
2023/05/06 09:12:00;;;;;;;;;;;;;;;21.58;55.17;101263.78;4915379;29;20277;-82
2023/05/06 09:14:27;;;;;;;;;;;;;;;21.61;55.03;101253.47;4920247;29;19923;-82
2023/05/06 09:16:54;;;;;;;;;;;;;;;21.60;55.43;101248.22;4925712;29;19930;-82
2023/05/06 09:19:21;;;;;;;;;;;;;;;21.51;53.63;101258.34;4917378;28;19926;-82
2023/05/06 09:21:49;;;;;;;;;;;;;;;21.50;54.88;101260.19;4920684;28;19922;-81
2023/05/06 09:24:16;;;;;;;;;;;;;;;21.75;54.47;101257.13;4933982;28;19922;-81
2023/05/06 09:26:44;;;;;;;;;;;;;;;21.78;54.14;101259.44;4893519;29;20439;-81
2023/05/06 09:29:11;;;;;;;;;;;;;;;21.95;52.50;101260.00;4914089;29;20219;-82
2023/05/06 09:31:42;;;;;;;;;;;;;;;21.73;52.08;101214.06;4937081;28;20141;-82
2023/05/06 09:34:10;;;;;;;;;;;;;;;22.14;52.06;101264.72;4932020;28;20317;-82
2023/05/06 09:36:36;;;;;;;;;;;;;;;22.49;51.21;101267.47;4915500;29;20289;-81
2023/05/06 09:39:08;;;;;;;;;;;;;;;22.56;52.07;101262.94;4916890;28;19934;-82
2023/05/06 09:41:36;;;;;;;;;;;;;;;22.75;52.16;101260.53;4906953;28;20388;-82
2023/05/06 09:44:03;;;;;;;;;;;;;;;22.58;52.70;101257.34;4921736;28;20365;-82
2023/05/06 09:46:30;;;;;;;;;;;;;;;22.37;52.10;101261.78;4919458;29;19973;-83
2023/05/06 09:48:57;;;;;;;;;;;;;;;22.20;53.79;101263.13;4919309;28;20062;-82
2023/05/06 09:51:25;;;;;;;;;;;;;;;22.07;53.65;101268.41;4919033;28;20044;-83
2023/05/06 09:53:53;;;;;;;;;;;;;;;22.08;53.32;101267.38;4939083;28;19946;-82
2023/05/06 09:56:20;;;;;;;;;;;;;;;22.17;52.73;101253.50;4924371;28;19927;-83
2023/05/06 09:58:47;;;;;;;;;;;;;;;22.40;52.55;101264.09;4888487;29;19938;-83
2023/05/06 10:01:14;;;;;;;;;;;;;;;22.95;52.20;101257.91;4898309;29;19926;-83
2023/05/06 10:04:00;;;;;;;;;;;;;;;22.63;52.98;101254.88;4915611;28;19973;-82
2023/05/06 10:06:27;;;;;;;;;;;;;;;22.68;53.19;101254.25;4919746;28;20392;-82
2023/05/06 10:08:55;;;;;;;;;;;;;;;22.56;53.04;101235.06;4917598;28;19926;-80
2023/05/06 10:11:22;;;;;;;;;;;;;;;22.73;52.50;101255.31;4919081;28;20384;-81
2023/05/06 10:13:49;;;;;;;;;;;;;;;22.75;53.24;101242.44;4901719;28;19922;-82
2023/05/06 10:16:17;;;;;;;;;;;;;;;22.93;52.34;101241.03;4918906;28;19922;-84
2023/05/06 10:18:44;;;;;;;;;;;;;;;22.70;52.07;101242.19;4929828;28;19929;-83
2023/05/06 10:21:16;;;;;;;;;;;;;;;22.88;51.73;101243.53;4924636;28;19922;-84
2023/05/06 10:23:43;;;;;;;;;;;;;;;23.01;51.97;101249.00;4913067;28;19926;-83
2023/05/06 10:26:11;;;;;;;;;;;;;;;22.93;51.54;101241.03;4910922;28;20367;-83
2023/05/06 10:28:42;;;;;;;;;;;;;;;23.17;51.69;101232.41;4900476;28;20214;-83
2023/05/06 10:31:10;;;;;;;;;;;;;;;23.35;50.77;101239.97;4912584;28;20117;-83
2023/05/06 10:33:43;;;;;;;;;;;;;;;23.03;49.29;101238.81;4911290;28;20008;-83
2023/05/06 10:36:10;;;;;;;;;;;;;;;23.27;49.84;101240.13;4936183;28;19933;-82
2023/05/06 10:38:40;;;;;;;;;;;;;;;23.38;50.07;101241.44;4930956;28;19926;-82
2023/05/06 10:41:07;;;;;;;;;;;;;;;23.47;50.52;101234.75;4912795;28;19949;-83
2023/05/06 10:43:38;;;;;;;;;;;;;;;23.43;51.05;101236.22;4901861;28;19922;-83
2023/05/06 10:46:07;;;;;;;;;;;;;;;23.56;50.51;101233.50;4906219;28;19948;-82
2023/05/06 10:49:01;;;;;;;;;;;;;;;23.35;50.72;101228.25;4900886;28;20537;-83
2023/05/06 10:51:38;;;;;;;;;;;;;;;23.16;50.68;101227.22;4884495;28;20490;-84
2023/05/06 10:54:09;;;;;;;;;;;;;;;23.36;51.19;101225.38;4898591;29;20439;-82
2023/05/06 10:56:37;;;;;;;;;;;;;;;23.34;51.44;101219.31;4888780;28;19922;-82
2023/05/06 10:59:10;;;;;;;;;;;;;;;23.16;50.64;101221.78;4907705;28;20447;-84
2023/05/06 11:01:49;;;;;;;;;;;;;;;23.24;49.11;101211.59;4914651;28;20067;-82
2023/05/06 11:04:21;;;;;;;;;;;;;;;23.14;50.67;101170.53;4910392;28;19973;-82
2023/05/06 11:07:05;;;;;;;;;;;;;;;23.53;50.62;101208.72;4920131;28;20018;-82
2023/05/06 11:09:55;;;;;;;;;;;;;;;23.56;49.55;101211.84;4882854;28;19934;-82
2023/05/06 11:12:54;;;;;;;;;;;;;;;23.37;49.54;101210.75;4908525;28;19931;-83
2023/05/06 11:15:25;;;;;;;;;;;;;;;23.72;49.04;101209.78;4918494;28;19922;-81
2023/05/06 11:17:55;;;;;;;;;;;;;;;23.99;49.13;101214.16;4938856;28;20429;-82
2023/05/06 11:20:26;;;;;;;;;;;;;;;23.91;48.94;101208.97;4940843;28;19969;-82
2023/05/06 11:22:52;;;;;;;;;;;;;;;23.90;49.17;101210.00;4940112;28;19929;-83
2023/05/06 11:25:38;;;;;;;;;;;;;;;23.39;46.67;101164.50;4936985;28;19926;-83
2023/05/06 11:28:09;;;;;;;;;;;;;;;23.87;47.24;101205.00;4943171;28;20599;-82
2023/05/06 11:30:39;;;;;;;;;;;;;;;23.95;49.28;101202.06;4923489;28;19948;-82
2023/05/06 11:33:07;;;;;;;;;;;;;;;24.09;49.15;101209.13;4921551;28;19922;-81
2023/05/06 11:35:37;;;;;;;;;;;;;;;24.02;49.05;101196.63;4934056;28;19922;-83
2023/05/06 11:38:13;;;;;;;;;;;;;;;24.17;48.43;101193.69;4919575;28;19929;-81
2023/05/06 11:40:43;;;;;;;;;;;;;;;24.30;48.39;101188.25;4925933;28;20439;-83
2023/05/06 11:43:13;;;;;;;;;;;;;;;24.27;47.63;101188.63;4943812;28;19930;-83
2023/05/06 11:45:49;;;;;;;;;;;;;;;24.34;48.77;101189.47;4906969;28;20209;-83
2023/05/06 11:48:23;;;;;;;;;;;;;;;24.60;47.49;101193.16;4933868;28;19922;-82
2023/05/06 11:50:55;;;;;;;;;;;;;;;24.57;48.14;101193.63;4939595;28;19926;-83
2023/05/06 11:53:24;;;;;;;;;;;;;;;24.63;46.79;101198.16;4941593;28;19922;-81
2023/05/06 11:55:52;;;;;;;;;;;;;;;24.94;45.75;101187.34;4934161;28;20288;-81
2023/05/06 11:58:29;;;;;;;;;;;;;;;25.13;46.38;101182.03;4913314;28;19922;-82
2023/05/06 12:00:58;;;;;;;;;;;;;;;25.09;46.41;101180.81;4938486;28;19928;-82
2023/05/06 12:03:27;;;;;;;;;;;;;;;25.03;46.08;101176.25;4947855;28;20319;-83
2023/05/06 12:05:55;;;;;;;;;;;;;;;25.14;46.23;101173.66;4944349;28;19929;-82
2023/05/06 12:08:25;;;;;;;;;;;;;;;25.04;46.29;101167.88;4948806;28;20295;-82
2023/05/06 12:10:54;;;;;;;;;;;;;;;24.92;46.62;101175.06;4939087;28;20345;-82
2023/05/06 12:13:23;;;;;;;;;;;;;;;25.23;45.60;101166.13;4913958;28;19922;-82
2023/05/06 12:16:00;;;;;;;;;;;;;;;25.65;45.15;101163.69;4910428;28;19949;-82
2023/05/06 12:18:32;;;;;;;;;;;;;;;25.87;45.46;101166.84;4938919;28;20545;-82
2023/05/06 12:21:03;;;;;;;;;;;;;;;25.93;45.75;101159.69;4923456;28;19996;-81
2023/05/06 12:23:30;;;;;;;;;;;;;;;25.97;45.29;101160.91;4921242;28;19922;-82
2023/05/06 12:26:02;;;;;;;;;;;;;;;26.23;44.86;101155.16;4937252;28;19926;-81
2023/05/06 12:28:30;;;;;;;;;;;;;;;26.51;44.43;101156.53;4921648;28;19922;-81
2023/05/06 12:30:56;;;;;;;;;;;;;;;26.17;44.82;101153.38;4924703;28;20574;-82
2023/05/06 12:33:23;;;;;;;;;;;;;;;25.58;45.32;101113.97;4913692;28;20216;-81
2023/05/06 12:35:53;;;;;;;;;;;;;;;25.86;45.27;101154.31;4954201;28;20044;-82
2023/05/06 12:38:20;;;;;;;;;;;;;;;25.91;45.38;101167.25;4942716;28;19931;-81
2023/05/06 12:40:59;;;;;;;;;;;;;;;25.73;45.46;101163.41;4946601;28;20016;-80
2023/05/06 12:43:38;;;;;;;;;;;;;;;26.04;45.80;101150.78;4963635;28;19989;-81
2023/05/06 12:46:08;;;;;;;;;;;;;;;26.38;44.84;101151.22;4942792;28;20225;-80
2023/05/06 12:48:35;;;;;;;;;;;;;;;26.85;43.80;101148.78;4954462;28;19953;-82